Time,TemperatureF,DewpointF,PressureIn,WindDirection,WindDirectionDegrees,WindSpeedMPH,WindSpeedGustMPH,Humidity,HourlyPrecipIn,Conditions,Clouds,dailyrainin,SoftwareType,DateUTC
2013-05-20 00:01:00,74.4,69.2,30.03,SE,141,0.0,0.0,84,0.00,,,0.00,Wunderground v.1.15,2013-05-20 04:01:00,
2013-05-20 00:02:00,74.4,69.2,30.03,SE,141,0.0,0.0,84,0.00,,,0.00,Wunderground v.1.15,2013-05-20 04:02:00,
2013-05-20 00:05:00,74.4,69.2,30.03,SE,141,0.0,0.0,84,0.00,,,0.00,Wunderground v.1.15,2013-05-20 04:05:00,
2013-05-20 00:06:00,74.2,69.1,30.03,SE,141,0.0,0.0,84,0.00,,,0.00,Wunderground v.1.15,2013-05-20 04:06:00,
2013-05-20 00:09:00,74.2,69.4,30.03,SE,141,0.0,0.0,85,0.00,,,0.00,Wunderground v.1.15,2013-05-20 04:09:00,
2013-05-20 00:14:00,74.0,69.2,30.03,SE,141,0.0,0.0,85,0.00,,,0.00,Wunderground v.1.15,2013-05-20 04:14:00,
2013-05-20 00:20:00,73.9,69.1,30.03,SE,141,0.0,0.0,85,0.00,,,0.00,Wunderground v.1.15,2013-05-20 04:20:00,
2013-05-20 00:26:00,73.9,69.4,30.03,SE,141,0.0,0.0,86,0.00,,,0.00,Wunderground v.1.15,2013-05-20 04:26:00,
2013-05-20 00:32:00,73.7,69.2,30.03,SE,141,0.0,0.0,86,0.00,,,0.00,Wunderground v.1.15,2013-05-20 04:32:00,
2013-05-20 00:37:00,73.5,69.1,30.03,SE,141,0.0,0.0,86,0.00,,,0.00,Wunderground v.1.15,2013-05-20 04:37:00,
2013-05-20 00:43:00,73.3,69.2,30.03,SE,141,0.0,0.0,87,0.00,,,0.00,Wunderground v.1.15,2013-05-20 04:43:00,
2013-05-20 00:48:00,73.0,68.9,30.02,SE,141,0.0,0.0,87,0.00,,,0.00,Wunderground v.1.15,2013-05-20 04:48:00,
2013-05-20 00:54:00,72.8,68.7,30.02,SE,141,0.0,0.0,87,0.00,,,0.00,Wunderground v.1.15,2013-05-20 04:54:00,
2013-05-20 01:01:00,72.7,68.9,30.03,SE,141,0.0,0.0,88,0.00,,,0.00,Wunderground v.1.15,2013-05-20 05:01:00,
2013-05-20 01:06:00,72.7,69.3,30.03,SE,141,0.0,0.0,89,0.00,,,0.00,Wunderground v.1.15,2013-05-20 05:06:00,
2013-05-20 01:12:00,72.5,69.1,30.03,SE,141,0.0,0.0,89,0.00,,,0.00,Wunderground v.1.15,2013-05-20 05:12:00,
2013-05-20 01:18:00,72.3,69.2,30.02,SE,141,0.0,0.0,90,0.00,,,0.00,Wunderground v.1.15,2013-05-20 05:18:00,
2013-05-20 01:24:00,72.3,69.2,30.02,SE,141,0.0,0.0,90,0.00,,,0.00,Wunderground v.1.15,2013-05-20 05:24:00,
2013-05-20 01:29:00,72.1,69.0,30.02,SE,141,0.0,0.0,90,0.00,,,0.00,Wunderground v.1.15,2013-05-20 05:29:00,
2013-05-20 01:35:00,72.1,69.0,30.02,SE,141,0.0,0.0,90,0.00,,,0.00,Wunderground v.1.15,2013-05-20 05:35:00,
2013-05-20 01:41:00,72.1,69.3,30.02,SE,141,0.0,0.0,91,0.00,,,0.00,Wunderground v.1.15,2013-05-20 05:41:00,
2013-05-20 01:47:00,72.0,69.2,30.01,SE,141,0.0,0.0,91,0.00,,,0.00,Wunderground v.1.15,2013-05-20 05:47:00,
2013-05-20 01:53:00,72.0,69.2,30.01,SE,141,0.0,0.0,91,0.00,,,0.00,Wunderground v.1.15,2013-05-20 05:53:00,
2013-05-20 01:58:00,72.0,69.2,30.01,SE,141,0.0,0.0,91,0.00,,,0.00,Wunderground v.1.15,2013-05-20 05:58:00,
2013-05-20 02:03:00,72.0,69.2,30.01,SE,141,0.0,0.0,91,0.00,,,0.00,Wunderground v.1.15,2013-05-20 06:03:00,
2013-05-20 02:08:00,72.0,69.5,30.01,SE,141,0.0,0.0,92,0.00,,,0.00,Wunderground v.1.15,2013-05-20 06:08:00,
2013-05-20 02:13:00,72.0,69.5,30.01,SE,141,0.0,0.0,92,0.00,,,0.00,Wunderground v.1.15,2013-05-20 06:13:00,
2013-05-20 02:18:00,72.0,69.5,30.00,SE,141,0.0,0.0,92,0.00,,,0.00,Wunderground v.1.15,2013-05-20 06:18:00,
2013-05-20 02:23:00,72.0,69.5,30.00,SE,141,0.0,0.0,92,0.00,,,0.00,Wunderground v.1.15,2013-05-20 06:23:00,
2013-05-20 02:28:00,72.0,69.5,29.98,SE,141,0.0,0.0,92,0.00,,,0.00,Wunderground v.1.15,2013-05-20 06:28:00,
2013-05-20 02:33:00,72.0,69.5,29.98,SE,141,0.0,0.0,92,0.00,,,0.00,Wunderground v.1.15,2013-05-20 06:33:00,
2013-05-20 02:38:00,72.0,69.5,29.98,SE,141,0.0,0.0,92,0.00,,,0.00,Wunderground v.1.15,2013-05-20 06:38:00,
2013-05-20 02:43:00,71.8,69.3,29.98,SE,141,0.0,0.0,92,0.00,,,0.00,Wunderground v.1.15,2013-05-20 06:43:00,
2013-05-20 02:49:00,71.8,69.3,29.98,SE,141,0.0,0.0,92,0.00,,,0.00,Wunderground v.1.15,2013-05-20 06:49:00,
2013-05-20 02:54:00,71.8,69.7,29.98,SE,141,0.0,0.0,93,0.00,,,0.00,Wunderground v.1.15,2013-05-20 06:54:00,
2013-05-20 02:59:00,71.8,69.7,29.98,SE,141,0.0,0.0,93,0.00,,,0.00,Wunderground v.1.15,2013-05-20 06:59:00,
2013-05-20 03:04:00,71.8,69.7,29.98,SE,141,0.0,0.0,93,0.00,,,0.00,Wunderground v.1.15,2013-05-20 07:04:00,
2013-05-20 03:09:00,71.6,69.5,29.98,SE,141,0.0,0.0,93,0.00,,,0.00,Wunderground v.1.15,2013-05-20 07:09:00,
2013-05-20 03:14:00,71.6,69.5,29.98,SE,141,0.0,0.0,93,0.00,,,0.00,Wunderground v.1.15,2013-05-20 07:14:00,
2013-05-20 03:19:00,71.5,69.4,29.98,SE,141,0.0,0.0,93,0.00,,,0.00,Wunderground v.1.15,2013-05-20 07:19:00,
2013-05-20 03:24:00,71.5,69.4,29.98,SE,141,0.0,0.0,93,0.00,,,0.00,Wunderground v.1.15,2013-05-20 07:24:00,
2013-05-20 03:29:00,71.3,69.2,29.98,SE,141,0.0,0.0,93,0.00,,,0.00,Wunderground v.1.15,2013-05-20 07:29:00,
2013-05-20 03:34:00,71.3,69.2,29.98,SE,141,0.0,0.0,93,0.00,,,0.00,Wunderground v.1.15,2013-05-20 07:34:00,
2013-05-20 03:39:00,71.1,69.0,29.98,SE,141,0.0,0.0,93,0.00,,,0.00,Wunderground v.1.15,2013-05-20 07:39:00,
2013-05-20 03:44:00,71.1,69.0,29.98,SE,141,0.0,0.0,93,0.00,,,0.00,Wunderground v.1.15,2013-05-20 07:44:00,
2013-05-20 03:49:00,70.9,68.8,29.98,SE,141,0.0,0.0,93,0.00,,,0.00,Wunderground v.1.15,2013-05-20 07:49:00,
2013-05-20 03:54:00,70.8,68.7,29.98,SE,141,0.0,0.0,93,0.00,,,0.00,Wunderground v.1.15,2013-05-20 07:54:00,
2013-05-20 03:59:00,70.6,68.5,29.97,SE,141,0.0,0.0,93,0.00,,,0.00,Wunderground v.1.15,2013-05-20 07:59:00,
2013-05-20 04:04:00,70.6,68.8,29.97,SE,141,0.0,0.0,94,0.00,,,0.00,Wunderground v.1.15,2013-05-20 08:04:00,
2013-05-20 04:10:00,70.4,68.6,29.97,SE,141,0.0,0.0,94,0.00,,,0.00,Wunderground v.1.15,2013-05-20 08:10:00,
2013-05-20 04:15:00,70.4,68.6,29.97,SE,141,0.0,0.0,94,0.00,,,0.00,Wunderground v.1.15,2013-05-20 08:15:00,
2013-05-20 04:20:00,70.3,68.5,29.97,SE,141,0.0,0.0,94,0.00,,,0.00,Wunderground v.1.15,2013-05-20 08:20:00,
2013-05-20 04:25:00,70.1,68.3,29.97,SE,141,0.0,0.0,94,0.00,,,0.00,Wunderground v.1.15,2013-05-20 08:25:00,
2013-05-20 04:30:00,70.1,68.3,29.97,SE,141,0.0,0.0,94,0.00,,,0.00,Wunderground v.1.15,2013-05-20 08:30:00,
2013-05-20 04:35:00,69.9,68.1,29.97,SE,141,0.0,0.0,94,0.00,,,0.00,Wunderground v.1.15,2013-05-20 08:35:00,
2013-05-20 04:40:00,69.9,68.1,29.97,SE,141,0.0,0.0,94,0.00,,,0.00,Wunderground v.1.15,2013-05-20 08:40:00,
2013-05-20 04:45:00,69.8,68.0,29.97,SE,141,0.0,0.0,94,0.00,,,0.00,Wunderground v.1.15,2013-05-20 08:45:00,
2013-05-20 04:50:00,69.8,68.0,29.97,SE,141,0.0,0.0,94,0.00,,,0.00,Wunderground v.1.15,2013-05-20 08:50:00,
2013-05-20 04:55:00,69.8,68.3,29.97,SE,141,0.0,0.0,95,0.00,,,0.00,Wunderground v.1.15,2013-05-20 08:55:00,
2013-05-20 05:00:00,69.8,68.3,29.97,SE,141,0.0,0.0,95,0.00,,,0.00,Wunderground v.1.15,2013-05-20 09:00:00,
2013-05-20 05:06:00,69.8,68.3,29.97,SE,141,0.0,0.0,95,0.00,,,0.00,Wunderground v.1.15,2013-05-20 09:06:00,
2013-05-20 05:11:00,69.8,68.3,29.97,SE,141,0.0,0.0,95,0.00,,,0.00,Wunderground v.1.15,2013-05-20 09:11:00,
2013-05-20 05:16:00,69.8,68.3,29.96,SE,141,0.0,0.0,95,0.00,,,0.00,Wunderground v.1.15,2013-05-20 09:16:00,
2013-05-20 05:21:00,69.8,68.3,29.96,SE,141,0.0,0.0,95,0.00,,,0.00,Wunderground v.1.15,2013-05-20 09:21:00,
2013-05-20 05:26:00,69.8,68.3,29.96,SE,141,0.0,0.0,95,0.00,,,0.00,Wunderground v.1.15,2013-05-20 09:26:00,
2013-05-20 05:31:00,69.8,68.6,29.96,SE,141,0.0,0.0,96,0.00,,,0.00,Wunderground v.1.15,2013-05-20 09:31:00,
2013-05-20 05:36:00,69.9,68.7,29.96,SE,141,0.0,0.0,96,0.00,,,0.00,Wunderground v.1.15,2013-05-20 09:36:00,
2013-05-20 05:41:00,70.1,68.9,29.96,SE,141,0.0,0.0,96,0.00,,,0.00,Wunderground v.1.15,2013-05-20 09:41:00,
2013-05-20 05:46:00,70.3,69.1,29.97,SE,141,0.0,0.0,96,0.00,,,0.00,Wunderground v.1.15,2013-05-20 09:46:00,
2013-05-20 05:51:00,70.4,69.2,29.97,SE,141,0.0,0.0,96,0.00,,,0.00,Wunderground v.1.15,2013-05-20 09:51:00,
2013-05-20 05:56:00,70.4,69.2,29.97,SE,141,0.0,0.0,96,0.00,,,0.00,Wunderground v.1.15,2013-05-20 09:56:00,
2013-05-20 06:02:00,70.6,69.7,29.98,SE,141,0.0,0.0,97,0.00,,,0.00,Wunderground v.1.15,2013-05-20 10:02:00,
2013-05-20 06:07:00,70.6,69.7,29.98,SE,141,0.0,0.0,97,0.00,,,0.00,Wunderground v.1.15,2013-05-20 10:07:00,
2013-05-20 06:12:00,70.8,69.9,29.98,SE,146,0.0,0.0,97,0.00,,,0.00,Wunderground v.1.15,2013-05-20 10:12:00,
2013-05-20 06:18:00,70.8,69.9,29.98,SE,146,0.0,0.0,97,0.00,,,0.00,Wunderground v.1.15,2013-05-20 10:18:00,
2013-05-20 06:23:00,70.9,70.0,29.98,SE,146,0.0,0.0,97,0.00,,,0.00,Wunderground v.1.15,2013-05-20 10:23:00,
2013-05-20 06:28:00,70.8,69.9,29.98,SE,146,0.0,0.0,97,0.00,,,0.00,Wunderground v.1.15,2013-05-20 10:28:00,
2013-05-20 06:34:00,70.8,69.9,29.99,SE,146,0.0,0.0,97,0.00,,,0.00,Wunderground v.1.15,2013-05-20 10:34:00,
2013-05-20 06:39:00,70.8,69.9,29.99,SE,146,0.0,0.0,97,0.00,,,0.00,Wunderground v.1.15,2013-05-20 10:39:00,
2013-05-20 06:44:00,70.6,69.7,29.99,SE,145,0.0,0.0,97,0.00,,,0.00,Wunderground v.1.15,2013-05-20 10:44:00,
2013-05-20 06:49:00,70.4,69.5,29.99,SE,145,0.0,0.0,97,0.00,,,0.00,Wunderground v.1.15,2013-05-20 10:49:00,
2013-05-20 06:54:00,70.4,69.5,29.99,SE,145,0.0,0.0,97,0.00,,,0.00,Wunderground v.1.15,2013-05-20 10:54:00,
2013-05-20 07:00:00,70.3,69.4,30.00,SE,145,0.0,0.0,97,0.00,,,0.00,Wunderground v.1.15,2013-05-20 11:00:00,
2013-05-20 07:05:00,70.3,69.4,30.00,SE,145,0.0,0.0,97,0.00,,,0.00,Wunderground v.1.15,2013-05-20 11:05:00,
2013-05-20 07:10:00,70.3,69.4,30.00,SE,145,0.0,0.0,97,0.00,,,0.00,Wunderground v.1.15,2013-05-20 11:10:00,
2013-05-20 07:15:00,70.3,69.4,30.00,SE,145,0.0,0.0,97,0.00,,,0.00,Wunderground v.1.15,2013-05-20 11:15:00,
2013-05-20 07:20:00,70.3,69.4,30.00,SE,145,0.0,0.0,97,0.00,,,0.00,Wunderground v.1.15,2013-05-20 11:20:00,
2013-05-20 07:25:00,70.3,69.4,30.00,SE,145,0.0,0.0,97,0.00,,,0.00,Wunderground v.1.15,2013-05-20 11:25:00,
2013-05-20 07:30:00,70.4,69.5,30.01,SE,145,0.0,0.0,97,0.00,,,0.00,Wunderground v.1.15,2013-05-20 11:30:00,
2013-05-20 07:36:00,70.6,69.7,30.01,SE,145,0.0,0.0,97,0.00,,,0.00,Wunderground v.1.15,2013-05-20 11:36:00,
2013-05-20 07:41:00,70.8,69.9,30.01,SE,145,0.0,0.0,97,0.00,,,0.00,Wunderground v.1.15,2013-05-20 11:41:00,
2013-05-20 07:46:00,70.9,70.0,30.01,SE,145,0.0,0.0,97,0.00,,,0.00,Wunderground v.1.15,2013-05-20 11:46:00,
2013-05-20 07:51:00,71.1,70.2,30.01,SE,145,0.0,0.0,97,0.00,,,0.00,Wunderground v.1.15,2013-05-20 11:51:00,
2013-05-20 07:56:00,71.5,70.9,30.01,SE,145,0.0,0.0,98,0.00,,,0.00,Wunderground v.1.15,2013-05-20 11:56:00,
2013-05-20 08:01:00,71.6,71.0,30.01,SE,145,0.0,0.0,98,0.00,,,0.00,Wunderground v.1.15,2013-05-20 12:01:00,
2013-05-20 08:07:00,72.0,71.4,30.01,SE,145,0.0,0.0,98,0.00,,,0.00,Wunderground v.1.15,2013-05-20 12:07:00,
2013-05-20 08:12:00,72.1,71.5,30.01,SE,145,0.0,0.0,98,0.00,,,0.00,Wunderground v.1.15,2013-05-20 12:12:00,
2013-05-20 08:17:00,72.5,71.6,30.03,SE,145,0.0,0.0,97,0.00,,,0.00,Wunderground v.1.15,2013-05-20 12:17:00,
2013-05-20 08:23:00,72.7,71.8,30.03,SE,145,0.0,0.0,97,0.00,,,0.00,Wunderground v.1.15,2013-05-20 12:23:00,
2013-05-20 08:28:00,73.0,72.1,30.03,SE,145,0.0,0.0,97,0.00,,,0.00,Wunderground v.1.15,2013-05-20 12:28:00,
2013-05-20 08:33:00,73.0,72.1,30.03,SE,145,0.0,0.0,97,0.00,,,0.00,Wunderground v.1.15,2013-05-20 12:33:00,
2013-05-20 08:38:00,73.2,72.0,30.03,SE,145,0.0,0.0,96,0.00,,,0.00,Wunderground v.1.15,2013-05-20 12:38:00,
2013-05-20 08:43:00,73.3,72.1,30.03,SE,145,0.0,0.0,96,0.00,,,0.00,Wunderground v.1.15,2013-05-20 12:43:00,
2013-05-20 08:48:00,73.7,72.5,30.03,SE,145,0.0,0.0,96,0.00,,,0.00,Wunderground v.1.15,2013-05-20 12:48:00,
2013-05-20 08:53:00,73.9,72.4,30.03,SE,145,0.0,0.0,95,0.00,,,0.00,Wunderground v.1.15,2013-05-20 12:53:00,
2013-05-20 08:58:00,74.0,72.2,30.03,SE,145,0.0,0.0,94,0.00,,,0.00,Wunderground v.1.15,2013-05-20 12:58:00,
2013-05-20 09:04:00,74.4,72.2,30.03,SE,145,0.0,0.0,93,0.00,,,0.00,Wunderground v.1.15,2013-05-20 13:04:00,
2013-05-20 09:09:00,74.6,72.1,30.03,SE,145,0.0,0.0,92,0.00,,,0.00,Wunderground v.1.15,2013-05-20 13:09:00,
2013-05-20 09:14:00,74.9,72.1,30.03,SE,145,0.0,0.0,91,0.00,,,0.00,Wunderground v.1.15,2013-05-20 13:14:00,
2013-05-20 09:20:00,75.3,72.2,30.03,SE,145,0.0,0.0,90,0.00,,,0.00,Wunderground v.1.15,2013-05-20 13:20:00,
2013-05-20 09:25:00,75.6,71.8,30.03,SE,145,0.0,0.0,88,0.00,,,0.00,Wunderground v.1.15,2013-05-20 13:25:00,
2013-05-20 09:30:00,76.0,71.5,30.03,South,190,0.0,0.0,86,0.00,,,0.00,Wunderground v.1.15,2013-05-20 13:30:00,
2013-05-20 09:35:00,76.3,71.1,30.03,South,190,0.0,0.0,84,0.00,,,0.00,Wunderground v.1.15,2013-05-20 13:35:00,
2013-05-20 09:40:00,76.8,71.9,30.03,South,190,0.0,0.0,85,0.00,,,0.00,Wunderground v.1.15,2013-05-20 13:40:00,
2013-05-20 09:45:00,77.4,72.2,30.03,South,190,0.0,0.0,84,0.00,,,0.00,Wunderground v.1.15,2013-05-20 13:45:00,
2013-05-20 09:50:00,78.3,72.7,30.03,South,190,0.0,0.0,83,0.00,,,0.00,Wunderground v.1.15,2013-05-20 13:50:00,
2013-05-20 09:55:00,78.8,73.2,30.03,South,190,0.0,0.0,83,0.00,,,0.00,Wunderground v.1.15,2013-05-20 13:55:00,
2013-05-20 10:00:00,79.2,72.9,30.04,NE,52,0.0,0.0,81,0.00,,,0.00,Wunderground v.1.15,2013-05-20 14:00:00,
2013-05-20 10:05:00,79.2,72.5,30.04,North,7,0.0,0.0,80,0.00,,,0.00,Wunderground v.1.15,2013-05-20 14:05:00,
2013-05-20 10:10:00,79.2,72.5,30.04,NNE,18,0.0,0.0,80,0.00,,,0.00,Wunderground v.1.15,2013-05-20 14:10:00,
2013-05-20 10:15:00,79.2,72.9,30.03,NNE,22,0.0,0.0,81,0.00,,,0.00,Wunderground v.1.15,2013-05-20 14:15:00,
2013-05-20 10:21:00,79.4,73.1,30.03,NNE,26,0.0,0.0,81,0.00,,,0.00,Wunderground v.1.15,2013-05-20 14:21:00,
2013-05-20 10:26:00,79.2,72.9,30.03,East,94,2.0,3.0,81,0.00,,,0.00,Wunderground v.1.15,2013-05-20 14:26:00,
2013-05-20 10:31:00,78.1,71.4,30.04,SE,126,4.0,11.0,80,0.00,,,0.00,Wunderground v.1.15,2013-05-20 14:31:00,
2013-05-20 10:37:00,77.6,72.0,30.04,East,88,0.0,11.0,83,0.00,,,0.00,Wunderground v.1.15,2013-05-20 14:37:00,
2013-05-20 10:42:00,77.0,71.8,30.04,SE,127,0.0,2.0,84,0.00,,,0.00,Wunderground v.1.15,2013-05-20 14:42:00,
2013-05-20 10:47:00,76.7,72.2,30.04,SE,124,0.0,5.0,86,0.59,,,0.03,Wunderground v.1.15,2013-05-20 14:47:00,
2013-05-20 10:53:00,76.0,72.2,30.04,SE,142,0.0,3.0,88,0.36,,,0.07,Wunderground v.1.15,2013-05-20 14:53:00,
2013-05-20 10:58:00,75.3,72.2,30.04,SE,125,0.0,3.0,90,0.40,,,0.10,Wunderground v.1.15,2013-05-20 14:58:00,
2013-05-20 11:03:00,74.6,71.8,30.04,SE,129,0.0,2.0,91,0.54,,,0.15,Wunderground v.1.15,2013-05-20 15:03:00,
2013-05-20 11:08:00,74.2,71.7,30.04,ESE,116,0.0,2.0,92,1.00,,,0.22,Wunderground v.1.15,2013-05-20 15:08:00,
2013-05-20 11:13:00,74.0,71.5,30.04,ESE,116,0.0,0.0,92,0.91,,,0.29,Wunderground v.1.15,2013-05-20 15:13:00,
2013-05-20 11:18:00,73.9,71.7,30.04,ESE,123,0.0,3.0,93,0.37,,,0.34,Wunderground v.1.15,2013-05-20 15:18:00,
2013-05-20 11:23:00,73.9,72.1,30.04,ESE,105,0.0,0.0,94,0.20,,,0.35,Wunderground v.1.15,2013-05-20 15:23:00,
2013-05-20 11:29:00,74.0,72.5,30.04,ESE,105,0.0,0.0,95,0.13,,,0.36,Wunderground v.1.15,2013-05-20 15:29:00,
2013-05-20 11:34:00,74.2,72.7,30.04,ESE,105,0.0,0.0,95,0.06,,,0.36,Wunderground v.1.15,2013-05-20 15:34:00,
2013-05-20 11:39:00,74.6,73.4,30.04,ESE,105,0.0,0.0,96,0.04,,,0.36,Wunderground v.1.15,2013-05-20 15:39:00,
2013-05-20 11:44:00,74.6,73.4,30.04,ESE,105,0.0,0.0,96,0.04,,,0.37,Wunderground v.1.15,2013-05-20 15:44:00,
2013-05-20 11:49:00,74.7,73.5,30.04,ESE,105,0.0,0.0,96,0.04,,,0.37,Wunderground v.1.15,2013-05-20 15:49:00,
2013-05-20 11:54:00,74.9,73.7,30.04,East,91,0.0,1.0,96,0.04,,,0.37,Wunderground v.1.15,2013-05-20 15:54:00,
2013-05-20 11:59:00,75.1,73.9,30.04,East,91,0.0,1.0,96,0.00,,,0.37,Wunderground v.1.15,2013-05-20 15:59:00,
2013-05-20 12:04:00,75.3,74.1,30.04,East,91,0.0,0.0,96,0.00,,,0.37,Wunderground v.1.15,2013-05-20 16:04:00,
2013-05-20 12:13:00,75.4,74.5,30.04,East,91,0.0,0.0,97,0.00,,,0.37,Wunderground v.1.15,2013-05-20 16:13:00,
2013-05-20 12:18:00,75.6,74.7,30.04,ENE,69,0.0,0.0,97,0.00,,,0.37,Wunderground v.1.15,2013-05-20 16:18:00,
2013-05-20 12:23:00,75.6,74.7,30.04,ENE,74,0.0,0.0,97,0.00,,,0.37,Wunderground v.1.15,2013-05-20 16:23:00,
2013-05-20 12:28:00,75.6,74.7,30.04,ENE,74,0.0,0.0,97,0.00,,,0.37,Wunderground v.1.15,2013-05-20 16:28:00,
2013-05-20 12:33:00,75.6,74.7,30.04,ENE,72,0.0,0.0,97,0.00,,,0.37,Wunderground v.1.15,2013-05-20 16:33:00,
2013-05-20 12:39:00,75.6,74.7,30.04,East,89,0.0,0.0,97,0.00,,,0.37,Wunderground v.1.15,2013-05-20 16:39:00,
2013-05-20 12:44:00,75.6,74.7,30.03,East,88,0.0,0.0,97,0.00,,,0.37,Wunderground v.1.15,2013-05-20 16:44:00,
2013-05-20 12:49:00,75.8,74.9,30.03,East,88,0.0,0.0,97,0.00,,,0.37,Wunderground v.1.15,2013-05-20 16:49:00,
2013-05-20 12:54:00,75.8,74.9,30.03,East,86,0.0,0.0,97,0.00,,,0.37,Wunderground v.1.15,2013-05-20 16:54:00,
2013-05-20 12:59:00,75.8,74.9,30.04,East,86,0.0,1.0,97,0.00,,,0.37,Wunderground v.1.15,2013-05-20 16:59:00,
2013-05-20 13:04:00,75.6,74.4,30.04,East,86,0.0,0.0,96,0.00,,,0.37,Wunderground v.1.15,2013-05-20 17:04:00,
2013-05-20 13:09:00,75.6,74.7,30.04,East,86,0.0,0.0,97,0.00,,,0.37,Wunderground v.1.15,2013-05-20 17:09:00,
2013-05-20 13:14:00,75.8,74.9,30.03,East,86,0.0,0.0,97,0.00,,,0.37,Wunderground v.1.15,2013-05-20 17:14:00,
2013-05-20 13:19:00,76.0,75.1,30.03,East,86,0.0,1.0,97,0.00,,,0.37,Wunderground v.1.15,2013-05-20 17:19:00,
2013-05-20 13:24:00,76.1,75.2,30.03,East,86,0.0,0.0,97,0.00,,,0.37,Wunderground v.1.15,2013-05-20 17:24:00,
2013-05-20 13:29:00,76.1,75.2,30.04,ESE,105,0.0,0.0,97,0.00,,,0.37,Wunderground v.1.15,2013-05-20 17:29:00,
2013-05-20 13:34:00,76.3,75.4,30.04,ESE,107,0.0,1.0,97,0.00,,,0.37,Wunderground v.1.15,2013-05-20 17:34:00,
2013-05-20 13:39:00,76.3,75.1,30.04,East,92,0.0,3.0,96,0.00,,,0.37,Wunderground v.1.15,2013-05-20 17:39:00,
2013-05-20 13:44:00,76.5,75.3,30.03,East,84,0.0,2.0,96,0.00,,,0.37,Wunderground v.1.15,2013-05-20 17:44:00,
2013-05-20 13:49:00,76.5,75.3,30.03,ENE,68,0.0,2.0,96,0.00,,,0.37,Wunderground v.1.15,2013-05-20 17:49:00,
2013-05-20 13:54:00,76.5,75.0,30.03,East,91,0.0,1.0,95,0.00,,,0.37,Wunderground v.1.15,2013-05-20 17:54:00,
2013-05-20 13:59:00,76.8,75.6,30.03,East,80,0.0,1.0,96,0.00,,,0.37,Wunderground v.1.15,2013-05-20 17:59:00,
2013-05-20 14:05:00,77.2,75.7,30.03,SE,125,0.0,5.0,95,0.00,,,0.37,Wunderground v.1.15,2013-05-20 18:05:00,
2013-05-20 14:10:00,77.9,75.7,30.03,NNE,20,1.0,1.0,93,0.00,,,0.37,Wunderground v.1.15,2013-05-20 18:10:00,
2013-05-20 14:15:00,77.7,74.9,30.02,ESE,111,0.0,4.0,91,0.00,,,0.37,Wunderground v.1.15,2013-05-20 18:15:00,
2013-05-20 14:20:00,77.9,74.7,30.02,East,98,0.0,0.0,90,0.00,,,0.37,Wunderground v.1.15,2013-05-20 18:20:00,
2013-05-20 14:25:00,78.3,74.8,30.02,ENE,78,1.0,3.0,89,0.00,,,0.37,Wunderground v.1.15,2013-05-20 18:25:00,
2013-05-20 14:30:00,78.3,74.8,30.01,East,79,0.0,0.0,89,0.00,,,0.37,Wunderground v.1.15,2013-05-20 18:30:00,
2013-05-20 14:35:00,78.6,74.7,30.01,ESE,120,0.0,0.0,88,0.00,,,0.37,Wunderground v.1.15,2013-05-20 18:35:00,
2013-05-20 14:40:00,78.8,74.6,30.01,East,79,2.0,2.0,87,0.00,,,0.37,Wunderground v.1.15,2013-05-20 18:40:00,
2013-05-20 14:45:00,79.0,74.8,30.02,East,92,0.0,2.0,87,0.00,,,0.37,Wunderground v.1.15,2013-05-20 18:45:00,
2013-05-20 14:50:00,79.2,74.6,30.02,East,92,0.0,0.0,86,0.00,,,0.37,Wunderground v.1.15,2013-05-20 18:50:00,
2013-05-20 14:55:00,79.4,74.1,30.02,East,92,0.0,0.0,84,0.00,,,0.37,Wunderground v.1.15,2013-05-20 18:55:00,
2013-05-20 15:00:00,80.1,75.9,30.01,NE,49,0.0,0.0,87,0.00,,,0.37,Wunderground v.1.15,2013-05-20 19:00:00,
2013-05-20 15:05:00,80.7,75.1,30.01,ESE,104,0.0,5.0,83,0.00,,,0.37,Wunderground v.1.15,2013-05-20 19:05:00,
2013-05-20 15:10:00,80.9,74.5,30.01,ENE,72,0.0,1.0,81,0.00,,,0.37,Wunderground v.1.15,2013-05-20 19:10:00,
2013-05-20 15:16:00,81.1,75.4,30.00,SSE,153,0.0,1.0,83,0.00,,,0.37,Wunderground v.1.15,2013-05-20 19:16:00,
2013-05-20 15:21:00,80.9,74.1,30.00,ESE,122,0.0,0.0,80,0.00,,,0.37,Wunderground v.1.15,2013-05-20 19:21:00,
2013-05-20 15:26:00,81.1,74.3,30.00,SE,131,0.0,4.0,80,0.00,,,0.37,Wunderground v.1.15,2013-05-20 19:26:00,
2013-05-20 15:31:00,81.4,74.6,29.99,East,91,0.0,3.0,80,0.00,,,0.37,Wunderground v.1.15,2013-05-20 19:31:00,
2013-05-20 15:36:00,81.2,74.1,29.99,SE,131,1.0,5.0,79,0.00,,,0.37,Wunderground v.1.15,2013-05-20 19:36:00,
2013-05-20 15:41:00,81.1,74.3,29.99,East,100,0.0,5.0,80,0.00,,,0.37,Wunderground v.1.15,2013-05-20 19:41:00,
2013-05-20 15:46:00,80.9,74.1,29.98,East,80,0.0,5.0,80,0.00,,,0.37,Wunderground v.1.15,2013-05-20 19:46:00,
2013-05-20 15:51:00,80.7,73.6,29.98,East,96,0.0,1.0,79,0.00,,,0.37,Wunderground v.1.15,2013-05-20 19:51:00,
2013-05-20 15:56:00,80.5,73.4,29.98,SSE,167,0.0,6.0,79,0.00,,,0.37,Wunderground v.1.15,2013-05-20 19:56:00,
2013-05-20 16:01:00,80.7,74.3,29.98,SE,146,0.0,6.0,81,0.00,,,0.37,Wunderground v.1.15,2013-05-20 20:01:00,
2013-05-20 16:06:00,81.4,75.0,29.98,East,96,3.0,6.0,81,0.00,,,0.37,Wunderground v.1.15,2013-05-20 20:06:00,
2013-05-20 16:11:00,82.2,75.4,29.98,ENE,77,0.0,4.0,80,0.00,,,0.37,Wunderground v.1.15,2013-05-20 20:11:00,
2013-05-20 16:16:00,83.0,75.8,29.97,East,83,0.0,10.0,79,0.00,,,0.37,Wunderground v.1.15,2013-05-20 20:16:00,
2013-05-20 16:21:00,83.0,74.3,29.97,ESE,117,3.0,3.0,75,0.00,,,0.37,Wunderground v.1.15,2013-05-20 20:21:00,
2013-05-20 16:26:00,82.6,73.5,29.97,SSW,193,0.0,6.0,74,0.00,,,0.37,Wunderground v.1.15,2013-05-20 20:26:00,
2013-05-20 16:31:00,82.0,72.9,29.97,SE,131,0.0,11.0,74,0.00,,,0.37,Wunderground v.1.15,2013-05-20 20:31:00,
2013-05-20 16:36:00,81.1,72.4,29.97,ESE,122,0.0,11.0,75,0.00,,,0.37,Wunderground v.1.15,2013-05-20 20:36:00,
2013-05-20 16:42:00,80.7,72.8,29.97,East,98,0.0,6.0,77,0.00,,,0.37,Wunderground v.1.15,2013-05-20 20:42:00,
2013-05-20 16:47:00,80.5,72.6,29.97,SSE,156,3.0,7.0,77,0.00,,,0.37,Wunderground v.1.15,2013-05-20 20:47:00,
2013-05-20 16:52:00,80.1,72.2,29.97,South,186,0.0,5.0,77,0.00,,,0.37,Wunderground v.1.15,2013-05-20 20:52:00,
2013-05-20 16:57:00,80.1,72.2,29.97,South,178,0.0,5.0,77,0.00,,,0.37,Wunderground v.1.15,2013-05-20 20:57:00,
2013-05-20 17:03:00,80.1,72.2,29.97,SSE,153,0.0,0.0,77,0.00,,,0.37,Wunderground v.1.15,2013-05-20 21:03:00,
2013-05-20 17:08:00,79.9,71.7,29.97,SE,134,3.0,3.0,76,0.00,,,0.37,Wunderground v.1.15,2013-05-20 21:08:00,
2013-05-20 17:13:00,79.6,71.0,29.97,SE,136,0.0,5.0,75,0.00,,,0.37,Wunderground v.1.15,2013-05-20 21:13:00,
2013-05-20 17:18:00,79.4,70.8,29.97,South,179,0.0,10.0,75,0.00,,,0.37,Wunderground v.1.15,2013-05-20 21:18:00,
2013-05-20 17:23:00,79.2,71.0,29.97,SSE,153,0.0,2.0,76,0.00,,,0.37,Wunderground v.1.15,2013-05-20 21:23:00,
2013-05-20 17:28:00,79.0,71.2,29.97,SE,146,2.0,7.0,77,0.00,,,0.37,Wunderground v.1.15,2013-05-20 21:28:00,
2013-05-20 17:33:00,78.8,69.8,29.97,SSE,164,4.0,4.0,74,0.00,,,0.37,Wunderground v.1.15,2013-05-20 21:33:00,
2013-05-20 17:38:00,78.5,69.1,29.97,ESE,114,10.0,11.0,73,0.00,,,0.37,Wunderground v.1.15,2013-05-20 21:38:00,
2013-05-20 17:43:00,78.3,69.3,29.97,SSE,164,0.0,2.0,74,0.00,,,0.37,Wunderground v.1.15,2013-05-20 21:43:00,
2013-05-20 17:48:00,78.3,69.3,29.95,SE,131,0.0,2.0,74,0.00,,,0.37,Wunderground v.1.15,2013-05-20 21:48:00,
2013-05-20 17:53:00,78.1,69.5,29.95,SE,129,0.0,0.0,75,0.00,,,0.37,Wunderground v.1.15,2013-05-20 21:53:00,
2013-05-20 17:58:00,78.1,69.9,29.95,SSE,150,0.0,0.0,76,0.00,,,0.37,Wunderground v.1.15,2013-05-20 21:58:00,
2013-05-20 18:04:00,78.1,70.3,29.95,SSE,150,0.0,0.0,77,0.00,,,0.37,Wunderground v.1.15,2013-05-20 22:04:00,
2013-05-20 18:09:00,78.1,70.7,29.95,SSE,150,0.0,0.0,78,0.00,,,0.37,Wunderground v.1.15,2013-05-20 22:09:00,
2013-05-20 18:14:00,78.1,70.3,29.95,SSE,150,0.0,0.0,77,0.00,,,0.37,Wunderground v.1.15,2013-05-20 22:14:00,
2013-05-20 18:19:00,78.1,70.7,29.95,SSE,148,0.0,1.0,78,0.00,,,0.37,Wunderground v.1.15,2013-05-20 22:19:00,
2013-05-20 18:24:00,78.1,71.1,29.95,ESE,113,0.0,0.0,79,0.00,,,0.37,Wunderground v.1.15,2013-05-20 22:24:00,
2013-05-20 18:29:00,78.1,71.1,29.96,East,87,0.0,1.0,79,0.00,,,0.37,Wunderground v.1.15,2013-05-20 22:29:00,
2013-05-20 18:34:00,77.9,71.2,29.96,ESE,105,0.0,5.0,80,0.00,,,0.37,Wunderground v.1.15,2013-05-20 22:34:00,
2013-05-20 18:40:00,77.9,71.6,29.96,ESE,105,0.0,0.0,81,0.00,,,0.37,Wunderground v.1.15,2013-05-20 22:40:00,
2013-05-20 18:45:00,77.7,71.4,29.97,East,101,0.0,1.0,81,0.00,,,0.37,Wunderground v.1.15,2013-05-20 22:45:00,
2013-05-20 18:50:00,77.6,71.7,29.97,East,96,0.0,0.0,82,0.00,,,0.37,Wunderground v.1.15,2013-05-20 22:50:00,
2013-05-20 18:56:00,77.6,71.7,29.97,ENE,74,0.0,3.0,82,0.00,,,0.37,Wunderground v.1.15,2013-05-20 22:56:00,
2013-05-20 19:01:00,77.6,71.7,29.98,East,79,0.0,0.0,82,0.00,,,0.37,Wunderground v.1.15,2013-05-20 23:01:00,
2013-05-20 19:06:00,77.4,71.8,29.98,East,80,0.0,0.0,83,0.00,,,0.37,Wunderground v.1.15,2013-05-20 23:06:00,
2013-05-20 19:11:00,77.4,71.5,29.98,ENE,72,0.0,0.0,82,0.00,,,0.37,Wunderground v.1.15,2013-05-20 23:11:00,
2013-05-20 19:17:00,77.4,71.5,29.99,ESE,105,0.0,4.0,82,0.00,,,0.37,Wunderground v.1.15,2013-05-20 23:17:00,
2013-05-20 19:22:00,77.4,71.8,29.99,ESE,115,0.0,0.0,83,0.00,,,0.37,Wunderground v.1.15,2013-05-20 23:22:00,
2013-05-20 19:27:00,77.6,72.0,29.99,ESE,108,0.0,0.0,83,0.00,,,0.37,Wunderground v.1.15,2013-05-20 23:27:00,
2013-05-20 19:32:00,77.6,72.0,30.00,ESE,107,0.0,0.0,83,0.00,,,0.37,Wunderground v.1.15,2013-05-20 23:32:00,
2013-05-20 19:37:00,77.7,72.1,30.00,East,92,0.0,1.0,83,0.00,,,0.37,Wunderground v.1.15,2013-05-20 23:37:00,
2013-05-20 19:42:00,77.7,72.5,30.00,East,92,0.0,0.0,84,0.00,,,0.37,Wunderground v.1.15,2013-05-20 23:42:00,
2013-05-20 19:47:00,77.7,72.8,30.00,East,92,0.0,0.0,85,0.00,,,0.37,Wunderground v.1.15,2013-05-20 23:47:00,
2013-05-20 19:53:00,77.6,72.7,30.00,East,92,0.0,0.0,85,0.00,,,0.37,Wunderground v.1.15,2013-05-20 23:53:00,
2013-05-20 19:58:00,77.6,73.1,30.00,East,92,0.0,0.0,86,0.00,,,0.37,Wunderground v.1.15,2013-05-20 23:58:00,
2013-05-20 20:03:00,77.6,73.1,30.00,East,92,0.0,0.0,86,0.00,,,0.37,Wunderground v.1.15,2013-05-21 00:03:00,
2013-05-20 20:08:00,77.4,73.2,30.00,East,92,0.0,0.0,87,0.00,,,0.37,Wunderground v.1.15,2013-05-21 00:08:00,
2013-05-20 20:13:00,77.4,73.2,30.00,East,92,0.0,0.0,87,0.00,,,0.37,Wunderground v.1.15,2013-05-21 00:13:00,
2013-05-20 20:18:00,77.2,73.0,30.00,East,92,0.0,0.0,87,0.00,,,0.37,Wunderground v.1.15,2013-05-21 00:18:00,
2013-05-20 20:23:00,77.0,73.2,30.00,East,92,0.0,0.0,88,0.00,,,0.37,Wunderground v.1.15,2013-05-21 00:23:00,
2013-05-20 20:28:00,77.0,73.2,30.00,East,92,0.0,0.0,88,0.00,,,0.38,Wunderground v.1.15,2013-05-21 00:28:00,
2013-05-20 20:34:00,76.8,73.0,30.01,East,92,0.0,0.0,88,0.00,,,0.38,Wunderground v.1.15,2013-05-21 00:34:00,
2013-05-20 20:39:00,76.7,73.2,30.01,East,92,0.0,0.0,89,0.00,,,0.38,Wunderground v.1.15,2013-05-21 00:39:00,
2013-05-20 20:44:00,76.7,73.2,30.01,East,92,0.0,0.0,89,0.00,,,0.38,Wunderground v.1.15,2013-05-21 00:44:00,
2013-05-20 20:49:00,76.7,73.5,30.01,East,92,0.0,0.0,90,0.00,,,0.38,Wunderground v.1.15,2013-05-21 00:49:00,
2013-05-20 20:54:00,76.5,73.3,30.01,East,92,0.0,0.0,90,0.00,,,0.38,Wunderground v.1.15,2013-05-21 00:54:00,
2013-05-20 20:59:00,76.5,73.3,30.01,East,92,0.0,0.0,90,0.00,,,0.38,Wunderground v.1.15,2013-05-21 00:59:00,
2013-05-20 21:04:00,76.5,73.7,30.01,East,92,0.0,0.0,91,0.00,,,0.38,Wunderground v.1.15,2013-05-21 01:04:00,
2013-05-20 21:09:00,76.3,73.5,30.01,East,92,0.0,0.0,91,0.00,,,0.38,Wunderground v.1.15,2013-05-21 01:09:00,
2013-05-20 21:14:00,76.3,73.8,30.01,East,92,0.0,0.0,92,0.00,,,0.38,Wunderground v.1.15,2013-05-21 01:14:00,
2013-05-20 21:19:00,76.1,73.6,30.01,East,92,0.0,0.0,92,0.00,,,0.38,Wunderground v.1.15,2013-05-21 01:19:00,
2013-05-20 21:24:00,76.1,73.6,30.01,East,92,0.0,0.0,92,0.00,,,0.38,Wunderground v.1.15,2013-05-21 01:24:00,
2013-05-20 21:30:00,76.0,73.5,30.01,East,92,0.0,0.0,92,0.00,,,0.38,Wunderground v.1.15,2013-05-21 01:30:00,
2013-05-20 21:35:00,76.0,73.5,30.01,East,92,0.0,0.0,92,0.00,,,0.38,Wunderground v.1.15,2013-05-21 01:35:00,
2013-05-20 21:40:00,75.8,73.3,30.01,East,92,0.0,0.0,92,0.00,,,0.38,Wunderground v.1.15,2013-05-21 01:40:00,
2013-05-20 21:45:00,75.6,73.4,30.00,East,92,0.0,0.0,93,0.00,,,0.38,Wunderground v.1.15,2013-05-21 01:45:00,
2013-05-20 21:50:00,75.6,73.4,30.00,East,92,0.0,0.0,93,0.00,,,0.38,Wunderground v.1.15,2013-05-21 01:50:00,
2013-05-20 21:55:00,75.4,73.6,30.00,East,92,0.0,0.0,94,0.00,,,0.38,Wunderground v.1.15,2013-05-21 01:55:00,
2013-05-20 22:00:00,75.4,73.6,29.99,East,92,0.0,0.0,94,0.00,,,0.38,Wunderground v.1.15,2013-05-21 02:00:00,
2013-05-20 22:05:00,75.4,73.9,29.99,East,93,0.0,0.0,95,0.00,,,0.38,Wunderground v.1.15,2013-05-21 02:05:00,
2013-05-20 22:10:00,75.3,73.8,29.99,East,93,0.0,0.0,95,0.00,,,0.38,Wunderground v.1.15,2013-05-21 02:10:00,
2013-05-20 22:15:00,75.3,73.8,29.98,East,93,0.0,0.0,95,0.00,,,0.38,Wunderground v.1.15,2013-05-21 02:15:00,
2013-05-20 22:20:00,75.1,73.6,29.98,East,93,0.0,0.0,95,0.00,,,0.38,Wunderground v.1.15,2013-05-21 02:20:00,
2013-05-20 22:26:00,75.1,73.6,29.98,East,93,0.0,0.0,95,0.00,,,0.38,Wunderground v.1.15,2013-05-21 02:26:00,
2013-05-20 22:31:00,75.1,73.6,29.98,East,93,0.0,0.0,95,0.00,,,0.38,Wunderground v.1.15,2013-05-21 02:31:00,
2013-05-20 22:36:00,74.9,73.4,29.98,East,93,0.0,0.0,95,0.00,,,0.38,Wunderground v.1.15,2013-05-21 02:36:00,
2013-05-20 22:41:00,74.9,73.4,29.98,East,93,0.0,0.0,95,0.00,,,0.38,Wunderground v.1.15,2013-05-21 02:41:00,
2013-05-20 22:46:00,74.9,73.7,29.99,East,93,0.0,0.0,96,0.00,,,0.38,Wunderground v.1.15,2013-05-21 02:46:00,
2013-05-20 22:51:00,75.1,73.9,29.99,East,93,0.0,0.0,96,0.00,,,0.38,Wunderground v.1.15,2013-05-21 02:51:00,
2013-05-20 22:56:00,75.1,73.9,29.99,East,93,0.0,0.0,96,0.00,,,0.38,Wunderground v.1.15,2013-05-21 02:56:00,
2013-05-20 23:01:00,74.9,73.7,30.00,East,93,0.0,0.0,96,0.00,,,0.38,Wunderground v.1.15,2013-05-21 03:01:00,
2013-05-20 23:06:00,74.9,73.7,30.00,East,93,0.0,0.0,96,0.00,,,0.38,Wunderground v.1.15,2013-05-21 03:06:00,
2013-05-20 23:11:00,74.9,73.7,30.00,East,93,0.0,0.0,96,0.00,,,0.38,Wunderground v.1.15,2013-05-21 03:11:00,
2013-05-20 23:16:00,75.1,73.9,30.00,East,92,0.0,0.0,96,0.00,,,0.38,Wunderground v.1.15,2013-05-21 03:16:00,
2013-05-20 23:21:00,75.1,73.9,30.00,East,93,0.0,0.0,96,0.00,,,0.38,Wunderground v.1.15,2013-05-21 03:21:00,
2013-05-20 23:26:00,75.1,73.9,30.00,East,91,0.0,1.0,96,0.00,,,0.38,Wunderground v.1.15,2013-05-21 03:26:00,
2013-05-20 23:32:00,75.1,73.9,30.00,East,91,0.0,0.0,96,0.00,,,0.38,Wunderground v.1.15,2013-05-21 03:32:00,
2013-05-20 23:37:00,75.3,74.4,30.00,East,86,0.0,2.0,97,0.00,,,0.38,Wunderground v.1.15,2013-05-21 03:37:00,
2013-05-20 23:42:00,75.4,74.5,30.00,ESE,102,0.0,0.0,97,0.00,,,0.38,Wunderground v.1.15,2013-05-21 03:42:00,
2013-05-20 23:47:00,75.4,74.5,29.99,ESE,104,0.0,0.0,97,0.00,,,0.38,Wunderground v.1.15,2013-05-21 03:47:00,
2013-05-20 23:52:00,75.4,74.5,29.99,ESE,103,0.0,0.0,97,0.00,,,0.38,Wunderground v.1.15,2013-05-21 03:52:00,
2013-05-20 23:57:00,75.6,74.7,29.99,East,80,0.0,4.0,97,0.00,,,0.38,Wunderground v.1.15,2013-05-21 03:57:00,